sensor_id;sensor_type;location;lat;lon;timestamp;P1;durP1;ratioP1;P2;durP2;ratioP2
9821;SDS011;4950;46.042;14.472;2022-12-07T00:01:48;11.90;;;9.70;;
9821;SDS011;4950;46.042;14.472;2022-12-07T00:04:16;10.97;;;9.87;;
9821;SDS011;4950;46.042;14.472;2022-12-07T00:06:44;10.57;;;9.47;;
9821;SDS011;4950;46.042;14.472;2022-12-07T00:09:12;10.53;;;9.57;;
9821;SDS011;4950;46.042;14.472;2022-12-07T00:11:40;10.50;;;9.50;;
9821;SDS011;4950;46.042;14.472;2022-12-07T00:14:10;10.00;;;9.00;;
9821;SDS011;4950;46.042;14.472;2022-12-07T00:16:37;10.43;;;9.43;;
9821;SDS011;4950;46.042;14.472;2022-12-07T00:19:04;12.10;;;10.30;;
9821;SDS011;4950;46.042;14.472;2022-12-07T00:21:31;11.33;;;9.70;;
9821;SDS011;4950;46.042;14.472;2022-12-07T00:23:59;11.07;;;9.90;;
9821;SDS011;4950;46.042;14.472;2022-12-07T00:26:28;12.07;;;10.60;;
9821;SDS011;4950;46.042;14.472;2022-12-07T00:28:56;11.77;;;10.67;;
9821;SDS011;4950;46.042;14.472;2022-12-07T00:31:27;10.53;;;9.53;;
9821;SDS011;4950;46.042;14.472;2022-12-07T00:33:56;11.03;;;9.93;;
9821;SDS011;4950;46.042;14.472;2022-12-07T00:36:24;11.03;;;9.93;;
9821;SDS011;4950;46.042;14.472;2022-12-07T00:38:51;11.47;;;10.27;;
9821;SDS011;4950;46.042;14.472;2022-12-07T00:41:18;10.63;;;9.37;;
9821;SDS011;4950;46.042;14.472;2022-12-07T00:43:46;11.07;;;9.10;;
9821;SDS011;4950;46.042;14.472;2022-12-07T00:46:14;9.67;;;8.77;;
9821;SDS011;4950;46.042;14.472;2022-12-07T00:48:43;8.53;;;7.73;;
9821;SDS011;4950;46.042;14.472;2022-12-07T00:51:10;9.53;;;8.57;;
9821;SDS011;4950;46.042;14.472;2022-12-07T00:53:38;9.27;;;8.37;;
9821;SDS011;4950;46.042;14.472;2022-12-07T00:56:05;8.70;;;7.80;;
9821;SDS011;4950;46.042;14.472;2022-12-07T00:58:33;8.90;;;8.07;;
9821;SDS011;4950;46.042;14.472;2022-12-07T01:01:00;8.57;;;7.77;;
9821;SDS011;4950;46.042;14.472;2022-12-07T01:03:27;9.67;;;8.03;;
9821;SDS011;4950;46.042;14.472;2022-12-07T01:05:55;8.73;;;7.93;;
9821;SDS011;4950;46.042;14.472;2022-12-07T01:08:23;9.60;;;8.60;;
9821;SDS011;4950;46.042;14.472;2022-12-07T01:10:57;8.93;;;8.13;;
9821;SDS011;4950;46.042;14.472;2022-12-07T01:13:24;8.53;;;7.73;;
9821;SDS011;4950;46.042;14.472;2022-12-07T01:15:55;7.77;;;6.97;;
9821;SDS011;4950;46.042;14.472;2022-12-07T01:18:24;7.80;;;7.10;;
9821;SDS011;4950;46.042;14.472;2022-12-07T01:20:58;7.53;;;6.33;;
9821;SDS011;4950;46.042;14.472;2022-12-07T01:23:26;6.33;;;5.70;;
9821;SDS011;4950;46.042;14.472;2022-12-07T01:25:56;5.00;;;4.57;;
9821;SDS011;4950;46.042;14.472;2022-12-07T01:28:23;6.00;;;5.47;;
9821;SDS011;4950;46.042;14.472;2022-12-07T01:30:57;6.00;;;5.10;;
9821;SDS011;4950;46.042;14.472;2022-12-07T01:33:26;5.60;;;5.10;;
9821;SDS011;4950;46.042;14.472;2022-12-07T01:35:54;6.07;;;5.37;;
9821;SDS011;4950;46.042;14.472;2022-12-07T01:38:22;5.50;;;5.00;;
9821;SDS011;4950;46.042;14.472;2022-12-07T01:40:53;8.07;;;5.00;;
9821;SDS011;4950;46.042;14.472;2022-12-07T01:43:21;6.03;;;5.47;;
9821;SDS011;4950;46.042;14.472;2022-12-07T01:45:51;4.60;;;4.20;;
9821;SDS011;4950;46.042;14.472;2022-12-07T01:48:19;4.80;;;4.40;;
9821;SDS011;4950;46.042;14.472;2022-12-07T01:50:50;4.40;;;4.00;;
9821;SDS011;4950;46.042;14.472;2022-12-07T01:53:19;4.00;;;3.60;;
9821;SDS011;4950;46.042;14.472;2022-12-07T01:55:52;4.13;;;3.73;;
9821;SDS011;4950;46.042;14.472;2022-12-07T01:58:20;4.47;;;4.03;;
9821;SDS011;4950;46.042;14.472;2022-12-07T02:00:47;4.23;;;3.83;;
9821;SDS011;4950;46.042;14.472;2022-12-07T02:03:15;4.13;;;3.53;;
9821;SDS011;4950;46.042;14.472;2022-12-07T02:05:46;4.37;;;3.97;;
9821;SDS011;4950;46.042;14.472;2022-12-07T02:08:14;4.13;;;3.73;;
9821;SDS011;4950;46.042;14.472;2022-12-07T02:10:42;4.03;;;3.60;;
9821;SDS011;4950;46.042;14.472;2022-12-07T02:13:09;4.20;;;3.80;;
9821;SDS011;4950;46.042;14.472;2022-12-07T02:15:46;4.53;;;4.13;;
9821;SDS011;4950;46.042;14.472;2022-12-07T02:18:23;3.70;;;3.40;;
9821;SDS011;4950;46.042;14.472;2022-12-07T02:21:00;3.70;;;3.40;;
9821;SDS011;4950;46.042;14.472;2022-12-07T02:23:50;4.00;;;3.60;;
9821;SDS011;4950;46.042;14.472;2022-12-07T02:29:35;3.67;;;3.37;;
9821;SDS011;4950;46.042;14.472;2022-12-07T02:32:08;3.87;;;3.20;;
9821;SDS011;4950;46.042;14.472;2022-12-07T02:34:42;4.10;;;3.10;;
9821;SDS011;4950;46.042;14.472;2022-12-07T02:37:17;4.33;;;3.63;;
9821;SDS011;4950;46.042;14.472;2022-12-07T02:39:52;3.53;;;3.20;;
9821;SDS011;4950;46.042;14.472;2022-12-07T02:42:24;5.13;;;3.43;;
9821;SDS011;4950;46.042;14.472;2022-12-07T02:44:58;3.50;;;3.20;;
9821;SDS011;4950;46.042;14.472;2022-12-07T02:47:26;3.50;;;3.20;;
9821;SDS011;4950;46.042;14.472;2022-12-07T02:49:55;3.50;;;3.20;;
9821;SDS011;4950;46.042;14.472;2022-12-07T02:52:22;3.57;;;2.90;;
9821;SDS011;4950;46.042;14.472;2022-12-07T02:54:49;3.20;;;2.87;;
9821;SDS011;4950;46.042;14.472;2022-12-07T02:57:20;3.70;;;3.40;;
9821;SDS011;4950;46.042;14.472;2022-12-07T03:00:03;3.90;;;3.60;;
9821;SDS011;4950;46.042;14.472;2022-12-07T03:02:35;4.30;;;3.90;;
9821;SDS011;4950;46.042;14.472;2022-12-07T03:05:16;5.47;;;5.07;;
9821;SDS011;4950;46.042;14.472;2022-12-07T03:07:59;5.23;;;4.30;;
9821;SDS011;4950;46.042;14.472;2022-12-07T03:10:33;4.43;;;4.03;;
9821;SDS011;4950;46.042;14.472;2022-12-07T03:13:09;4.70;;;4.30;;
9821;SDS011;4950;46.042;14.472;2022-12-07T03:15:41;4.50;;;4.10;;
9821;SDS011;4950;46.042;14.472;2022-12-07T03:18:13;4.00;;;3.63;;
9821;SDS011;4950;46.042;14.472;2022-12-07T03:20:42;3.83;;;3.27;;
9821;SDS011;4950;46.042;14.472;2022-12-07T03:23:12;3.70;;;3.30;;
9821;SDS011;4950;46.042;14.472;2022-12-07T03:25:43;4.67;;;3.20;;
9821;SDS011;4950;46.042;14.472;2022-12-07T03:28:16;4.47;;;4.07;;
9821;SDS011;4950;46.042;14.472;2022-12-07T03:30:49;3.57;;;3.27;;
9821;SDS011;4950;46.042;14.472;2022-12-07T03:33:22;3.73;;;3.30;;
9821;SDS011;4950;46.042;14.472;2022-12-07T03:35:57;3.83;;;3.53;;
9821;SDS011;4950;46.042;14.472;2022-12-07T03:38:28;3.40;;;3.10;;
9821;SDS011;4950;46.042;14.472;2022-12-07T03:41:00;3.50;;;3.20;;
9821;SDS011;4950;46.042;14.472;2022-12-07T03:43:32;3.40;;;3.10;;
9821;SDS011;4950;46.042;14.472;2022-12-07T03:46:03;3.80;;;3.23;;
9821;SDS011;4950;46.042;14.472;2022-12-07T03:48:41;3.53;;;3.20;;
9821;SDS011;4950;46.042;14.472;2022-12-07T03:51:18;3.90;;;3.57;;
9821;SDS011;4950;46.042;14.472;2022-12-07T03:53:50;3.43;;;3.13;;
9821;SDS011;4950;46.042;14.472;2022-12-07T03:56:21;3.10;;;2.80;;
9821;SDS011;4950;46.042;14.472;2022-12-07T03:58:49;3.37;;;3.00;;
9821;SDS011;4950;46.042;14.472;2022-12-07T04:01:19;2.93;;;2.67;;
9821;SDS011;4950;46.042;14.472;2022-12-07T04:03:46;2.93;;;2.63;;
9821;SDS011;4950;46.042;14.472;2022-12-07T04:06:13;3.37;;;3.07;;
9821;SDS011;4950;46.042;14.472;2022-12-07T04:08:40;4.70;;;3.07;;
9821;SDS011;4950;46.042;14.472;2022-12-07T04:11:07;2.77;;;2.57;;
9821;SDS011;4950;46.042;14.472;2022-12-07T04:13:33;2.63;;;2.43;;
9821;SDS011;4950;46.042;14.472;2022-12-07T04:16:21;3.20;;;3.00;;
9821;SDS011;4950;46.042;14.472;2022-12-07T04:18:48;4.23;;;2.83;;
9821;SDS011;4950;46.042;14.472;2022-12-07T04:21:14;2.67;;;2.20;;
9821;SDS011;4950;46.042;14.472;2022-12-07T04:23:41;2.60;;;2.40;;
9821;SDS011;4950;46.042;14.472;2022-12-07T04:26:08;3.30;;;2.80;;
9821;SDS011;4950;46.042;14.472;2022-12-07T04:28:34;2.60;;;2.40;;
9821;SDS011;4950;46.042;14.472;2022-12-07T04:31:01;2.80;;;2.50;;
9821;SDS011;4950;46.042;14.472;2022-12-07T04:33:29;2.70;;;2.50;;
9821;SDS011;4950;46.042;14.472;2022-12-07T04:35:56;2.60;;;2.40;;
9821;SDS011;4950;46.042;14.472;2022-12-07T04:38:22;2.90;;;2.57;;
9821;SDS011;4950;46.042;14.472;2022-12-07T04:40:49;2.60;;;2.40;;
9821;SDS011;4950;46.042;14.472;2022-12-07T04:43:16;3.33;;;3.03;;
9821;SDS011;4950;46.042;14.472;2022-12-07T04:45:45;2.60;;;2.40;;
9821;SDS011;4950;46.042;14.472;2022-12-07T04:48:12;3.97;;;2.90;;
9821;SDS011;4950;46.042;14.472;2022-12-07T04:50:40;2.63;;;2.43;;
9821;SDS011;4950;46.042;14.472;2022-12-07T04:53:07;2.60;;;2.30;;
9821;SDS011;4950;46.042;14.472;2022-12-07T04:55:33;2.63;;;2.43;;
9821;SDS011;4950;46.042;14.472;2022-12-07T04:58:00;2.10;;;1.90;;
9821;SDS011;4950;46.042;14.472;2022-12-07T05:00:27;2.10;;;1.90;;
9821;SDS011;4950;46.042;14.472;2022-12-07T05:02:53;3.33;;;1.97;;
9821;SDS011;4950;46.042;14.472;2022-12-07T05:05:20;2.50;;;2.30;;
9821;SDS011;4950;46.042;14.472;2022-12-07T05:07:48;3.73;;;2.10;;
9821;SDS011;4950;46.042;14.472;2022-12-07T05:10:14;2.33;;;2.10;;
9821;SDS011;4950;46.042;14.472;2022-12-07T05:12:41;2.90;;;2.17;;
9821;SDS011;4950;46.042;14.472;2022-12-07T05:15:08;2.10;;;1.90;;
9821;SDS011;4950;46.042;14.472;2022-12-07T05:17:35;2.20;;;2.00;;
9821;SDS011;4950;46.042;14.472;2022-12-07T05:20:02;3.00;;;2.27;;
9821;SDS011;4950;46.042;14.472;2022-12-07T05:22:30;2.17;;;1.90;;
9821;SDS011;4950;46.042;14.472;2022-12-07T05:24:58;2.17;;;1.93;;
9821;SDS011;4950;46.042;14.472;2022-12-07T05:27:25;2.03;;;1.83;;
9821;SDS011;4950;46.042;14.472;2022-12-07T05:29:52;1.90;;;1.80;;
9821;SDS011;4950;46.042;14.472;2022-12-07T05:32:19;3.63;;;1.93;;
9821;SDS011;4950;46.042;14.472;2022-12-07T05:34:45;1.90;;;1.80;;
9821;SDS011;4950;46.042;14.472;2022-12-07T05:37:12;3.17;;;1.90;;
9821;SDS011;4950;46.042;14.472;2022-12-07T05:39:38;1.97;;;1.70;;
9821;SDS011;4950;46.042;14.472;2022-12-07T05:42:09;2.73;;;1.87;;
9821;SDS011;4950;46.042;14.472;2022-12-07T05:44:39;2.20;;;1.63;;
9821;SDS011;4950;46.042;14.472;2022-12-07T05:47:06;2.10;;;1.90;;
9821;SDS011;4950;46.042;14.472;2022-12-07T05:49:33;2.23;;;2.03;;
9821;SDS011;4950;46.042;14.472;2022-12-07T05:52:00;2.00;;;1.80;;
9821;SDS011;4950;46.042;14.472;2022-12-07T05:54:28;2.10;;;1.90;;
9821;SDS011;4950;46.042;14.472;2022-12-07T05:56:55;2.27;;;2.00;;
9821;SDS011;4950;46.042;14.472;2022-12-07T05:59:23;2.40;;;2.20;;
9821;SDS011;4950;46.042;14.472;2022-12-07T06:01:49;2.33;;;2.13;;
9821;SDS011;4950;46.042;14.472;2022-12-07T06:04:16;2.23;;;1.90;;
9821;SDS011;4950;46.042;14.472;2022-12-07T06:06:43;2.47;;;1.83;;
9821;SDS011;4950;46.042;14.472;2022-12-07T06:09:10;2.50;;;2.10;;
9821;SDS011;4950;46.042;14.472;2022-12-07T06:11:37;2.13;;;1.93;;
9821;SDS011;4950;46.042;14.472;2022-12-07T06:14:23;2.43;;;1.90;;
9821;SDS011;4950;46.042;14.472;2022-12-07T06:16:49;3.30;;;2.10;;
9821;SDS011;4950;46.042;14.472;2022-12-07T06:19:16;2.67;;;2.40;;
9821;SDS011;4950;46.042;14.472;2022-12-07T06:21:43;2.27;;;2.00;;
9821;SDS011;4950;46.042;14.472;2022-12-07T06:24:10;2.40;;;2.00;;
9821;SDS011;4950;46.042;14.472;2022-12-07T06:26:37;3.27;;;2.00;;
9821;SDS011;4950;46.042;14.472;2022-12-07T06:29:04;4.73;;;2.20;;
9821;SDS011;4950;46.042;14.472;2022-12-07T06:31:32;5.00;;;3.17;;
9821;SDS011;4950;46.042;14.472;2022-12-07T06:34:00;4.10;;;3.60;;
9821;SDS011;4950;46.042;14.472;2022-12-07T06:36:27;4.30;;;3.07;;
9821;SDS011;4950;46.042;14.472;2022-12-07T06:38:54;5.27;;;2.93;;
9821;SDS011;4950;46.042;14.472;2022-12-07T06:41:20;5.37;;;3.23;;
9821;SDS011;4950;46.042;14.472;2022-12-07T06:43:48;4.77;;;3.10;;
9821;SDS011;4950;46.042;14.472;2022-12-07T06:46:15;3.43;;;3.00;;
9821;SDS011;4950;46.042;14.472;2022-12-07T06:48:43;5.17;;;2.80;;
9821;SDS011;4950;46.042;14.472;2022-12-07T06:51:10;2.93;;;2.67;;
9821;SDS011;4950;46.042;14.472;2022-12-07T06:53:37;7.17;;;2.90;;
9821;SDS011;4950;46.042;14.472;2022-12-07T06:56:04;4.90;;;2.90;;
9821;SDS011;4950;46.042;14.472;2022-12-07T06:58:31;4.43;;;2.53;;
9821;SDS011;4950;46.042;14.472;2022-12-07T07:00:58;3.10;;;2.80;;
9821;SDS011;4950;46.042;14.472;2022-12-07T07:03:24;3.37;;;2.73;;
9821;SDS011;4950;46.042;14.472;2022-12-07T07:05:52;3.00;;;2.70;;
9821;SDS011;4950;46.042;14.472;2022-12-07T07:08:19;4.57;;;2.63;;
9821;SDS011;4950;46.042;14.472;2022-12-07T07:10:46;4.53;;;2.87;;
9821;SDS011;4950;46.042;14.472;2022-12-07T07:13:12;3.50;;;3.20;;
9821;SDS011;4950;46.042;14.472;2022-12-07T07:15:39;3.43;;;2.87;;
9821;SDS011;4950;46.042;14.472;2022-12-07T07:18:06;4.07;;;3.63;;
9821;SDS011;4950;46.042;14.472;2022-12-07T07:20:32;6.73;;;4.40;;
9821;SDS011;4950;46.042;14.472;2022-12-07T07:23:00;4.13;;;3.43;;
9821;SDS011;4950;46.042;14.472;2022-12-07T07:25:27;4.73;;;3.20;;
9821;SDS011;4950;46.042;14.472;2022-12-07T07:27:54;5.00;;;3.50;;
9821;SDS011;4950;46.042;14.472;2022-12-07T07:30:20;3.30;;;2.90;;
9821;SDS011;4950;46.042;14.472;2022-12-07T07:32:47;3.87;;;3.17;;
9821;SDS011;4950;46.042;14.472;2022-12-07T07:35:14;3.87;;;2.77;;
9821;SDS011;4950;46.042;14.472;2022-12-07T07:37:41;3.63;;;2.80;;
9821;SDS011;4950;46.042;14.472;2022-12-07T07:40:09;2.73;;;2.53;;
9821;SDS011;4950;46.042;14.472;2022-12-07T07:42:36;3.97;;;2.97;;
9821;SDS011;4950;46.042;14.472;2022-12-07T07:45:03;3.77;;;3.00;;
9821;SDS011;4950;46.042;14.472;2022-12-07T07:47:31;3.03;;;2.73;;
9821;SDS011;4950;46.042;14.472;2022-12-07T07:49:57;5.57;;;3.50;;
9821;SDS011;4950;46.042;14.472;2022-12-07T07:52:24;3.90;;;3.17;;
9821;SDS011;4950;46.042;14.472;2022-12-07T07:54:51;3.80;;;3.20;;
9821;SDS011;4950;46.042;14.472;2022-12-07T07:57:19;4.73;;;2.90;;
9821;SDS011;4950;46.042;14.472;2022-12-07T07:59:46;4.43;;;3.00;;
9821;SDS011;4950;46.042;14.472;2022-12-07T08:02:14;4.93;;;3.10;;
9821;SDS011;4950;46.042;14.472;2022-12-07T08:04:42;3.50;;;2.77;;
9821;SDS011;4950;46.042;14.472;2022-12-07T08:07:09;3.10;;;2.70;;
9821;SDS011;4950;46.042;14.472;2022-12-07T08:09:36;5.80;;;3.00;;
9821;SDS011;4950;46.042;14.472;2022-12-07T08:12:03;3.07;;;2.77;;
9821;SDS011;4950;46.042;14.472;2022-12-07T08:14:32;5.00;;;2.90;;
9821;SDS011;4950;46.042;14.472;2022-12-07T08:17:00;3.20;;;2.67;;
9821;SDS011;4950;46.042;14.472;2022-12-07T08:19:26;3.10;;;2.60;;
9821;SDS011;4950;46.042;14.472;2022-12-07T08:21:53;3.83;;;3.00;;
9821;SDS011;4950;46.042;14.472;2022-12-07T08:24:21;3.80;;;2.83;;
9821;SDS011;4950;46.042;14.472;2022-12-07T08:26:47;4.83;;;2.50;;
9821;SDS011;4950;46.042;14.472;2022-12-07T08:29:15;4.60;;;2.60;;
9821;SDS011;4950;46.042;14.472;2022-12-07T08:31:43;3.50;;;2.63;;
9821;SDS011;4950;46.042;14.472;2022-12-07T08:34:10;2.97;;;2.50;;
9821;SDS011;4950;46.042;14.472;2022-12-07T08:36:36;3.53;;;2.37;;
9821;SDS011;4950;46.042;14.472;2022-12-07T08:39:03;3.07;;;2.73;;
9821;SDS011;4950;46.042;14.472;2022-12-07T08:41:30;5.23;;;2.40;;
9821;SDS011;4950;46.042;14.472;2022-12-07T08:43:56;6.07;;;2.80;;
9821;SDS011;4950;46.042;14.472;2022-12-07T08:46:24;3.20;;;2.50;;
9821;SDS011;4950;46.042;14.472;2022-12-07T08:49:03;5.50;;;2.70;;
9821;SDS011;4950;46.042;14.472;2022-12-07T08:51:32;3.03;;;2.70;;
9821;SDS011;4950;46.042;14.472;2022-12-07T08:54:00;6.50;;;2.93;;
9821;SDS011;4950;46.042;14.472;2022-12-07T08:56:30;3.47;;;2.50;;
9821;SDS011;4950;46.042;14.472;2022-12-07T08:58:57;3.37;;;2.60;;
9821;SDS011;4950;46.042;14.472;2022-12-07T09:01:24;2.53;;;2.30;;
9821;SDS011;4950;46.042;14.472;2022-12-07T09:03:52;3.43;;;2.47;;
9821;SDS011;4950;46.042;14.472;2022-12-07T09:06:20;5.63;;;2.20;;
9821;SDS011;4950;46.042;14.472;2022-12-07T09:08:47;5.77;;;2.13;;
9821;SDS011;4950;46.042;14.472;2022-12-07T09:11:17;4.43;;;2.33;;
9821;SDS011;4950;46.042;14.472;2022-12-07T09:13:43;2.53;;;2.33;;
9821;SDS011;4950;46.042;14.472;2022-12-07T09:16:10;4.93;;;2.40;;
9821;SDS011;4950;46.042;14.472;2022-12-07T09:18:37;3.63;;;2.50;;
9821;SDS011;4950;46.042;14.472;2022-12-07T09:21:04;4.87;;;2.50;;
9821;SDS011;4950;46.042;14.472;2022-12-07T09:23:32;3.73;;;2.60;;
9821;SDS011;4950;46.042;14.472;2022-12-07T09:25:59;4.20;;;2.60;;
9821;SDS011;4950;46.042;14.472;2022-12-07T09:28:26;3.77;;;2.43;;
9821;SDS011;4950;46.042;14.472;2022-12-07T09:30:53;3.57;;;2.93;;
9821;SDS011;4950;46.042;14.472;2022-12-07T09:33:19;4.20;;;2.70;;
9821;SDS011;4950;46.042;14.472;2022-12-07T09:35:48;3.23;;;2.57;;
9821;SDS011;4950;46.042;14.472;2022-12-07T09:38:16;3.23;;;2.93;;
9821;SDS011;4950;46.042;14.472;2022-12-07T09:40:45;3.50;;;3.20;;
9821;SDS011;4950;46.042;14.472;2022-12-07T09:43:13;3.87;;;3.47;;
9821;SDS011;4950;46.042;14.472;2022-12-07T09:45:43;3.23;;;2.93;;
9821;SDS011;4950;46.042;14.472;2022-12-07T09:48:13;4.37;;;3.97;;
9821;SDS011;4950;46.042;14.472;2022-12-07T09:50:44;6.40;;;3.90;;
9821;SDS011;4950;46.042;14.472;2022-12-07T09:53:14;3.83;;;3.47;;
9821;SDS011;4950;46.042;14.472;2022-12-07T09:55:47;4.00;;;3.60;;
9821;SDS011;4950;46.042;14.472;2022-12-07T09:58:17;3.93;;;3.50;;
9821;SDS011;4950;46.042;14.472;2022-12-07T10:00:47;7.33;;;4.30;;
9821;SDS011;4950;46.042;14.472;2022-12-07T10:03:14;4.23;;;3.83;;
9821;SDS011;4950;46.042;14.472;2022-12-07T10:05:42;4.73;;;4.30;;
9821;SDS011;4950;46.042;14.472;2022-12-07T10:08:11;4.47;;;4.00;;
9821;SDS011;4950;46.042;14.472;2022-12-07T10:10:40;6.10;;;4.90;;
9821;SDS011;4950;46.042;14.472;2022-12-07T10:13:09;5.57;;;4.83;;
9821;SDS011;4950;46.042;14.472;2022-12-07T10:15:41;6.00;;;5.40;;
9821;SDS011;4950;46.042;14.472;2022-12-07T10:21:03;7.57;;;5.70;;
9821;SDS011;4950;46.042;14.472;2022-12-07T10:23:42;6.87;;;5.47;;
9821;SDS011;4950;46.042;14.472;2022-12-07T10:26:31;6.60;;;6.00;;
9821;SDS011;4950;46.042;14.472;2022-12-07T10:29:02;6.27;;;5.73;;
9821;SDS011;4950;46.042;14.472;2022-12-07T10:31:40;5.70;;;5.10;;
9821;SDS011;4950;46.042;14.472;2022-12-07T10:34:14;5.57;;;5.00;;
9821;SDS011;4950;46.042;14.472;2022-12-07T10:36:49;5.30;;;4.80;;
9821;SDS011;4950;46.042;14.472;2022-12-07T10:39:17;6.70;;;5.83;;
9821;SDS011;4950;46.042;14.472;2022-12-07T10:41:54;7.73;;;6.73;;
9821;SDS011;4950;46.042;14.472;2022-12-07T10:44:25;6.27;;;5.67;;
9821;SDS011;4950;46.042;14.472;2022-12-07T10:52:50;10.80;;;6.90;;
9821;SDS011;4950;46.042;14.472;2022-12-07T10:55:39;9.80;;;7.03;;
9821;SDS011;4950;46.042;14.472;2022-12-07T10:58:24;10.43;;;7.83;;
9821;SDS011;4950;46.042;14.472;2022-12-07T11:01:01;8.87;;;7.60;;
9821;SDS011;4950;46.042;14.472;2022-12-07T11:03:38;9.77;;;6.93;;
9821;SDS011;4950;46.042;14.472;2022-12-07T11:06:16;9.23;;;6.43;;
9821;SDS011;4950;46.042;14.472;2022-12-07T11:08:57;9.60;;;6.70;;
9821;SDS011;4950;46.042;14.472;2022-12-07T11:11:37;9.73;;;6.80;;
9821;SDS011;4950;46.042;14.472;2022-12-07T11:14:12;8.27;;;7.47;;
9821;SDS011;4950;46.042;14.472;2022-12-07T11:16:52;9.60;;;8.40;;
9821;SDS011;4950;46.042;14.472;2022-12-07T11:19:28;13.67;;;10.07;;
9821;SDS011;4950;46.042;14.472;2022-12-07T11:22:09;10.13;;;9.10;;
9821;SDS011;4950;46.042;14.472;2022-12-07T11:24:43;12.67;;;11.47;;
9821;SDS011;4950;46.042;14.472;2022-12-07T11:27:19;12.93;;;11.73;;
9821;SDS011;4950;46.042;14.472;2022-12-07T11:29:59;12.30;;;11.00;;
9821;SDS011;4950;46.042;14.472;2022-12-07T11:32:43;12.70;;;11.33;;
9821;SDS011;4950;46.042;14.472;2022-12-07T11:35:17;13.40;;;11.57;;
9821;SDS011;4950;46.042;14.472;2022-12-07T11:37:51;13.67;;;12.27;;
9821;SDS011;4950;46.042;14.472;2022-12-07T11:40:24;13.27;;;11.97;;
9821;SDS011;4950;46.042;14.472;2022-12-07T11:42:55;12.70;;;10.20;;
9821;SDS011;4950;46.042;14.472;2022-12-07T11:45:26;13.30;;;11.13;;
9821;SDS011;4950;46.042;14.472;2022-12-07T11:47:57;15.60;;;11.33;;
9821;SDS011;4950;46.042;14.472;2022-12-07T11:50:27;12.13;;;10.93;;
9821;SDS011;4950;46.042;14.472;2022-12-07T11:53:01;13.70;;;12.27;;
9821;SDS011;4950;46.042;14.472;2022-12-07T11:55:32;13.57;;;11.87;;
9821;SDS011;4950;46.042;14.472;2022-12-07T11:58:13;12.80;;;11.50;;
9821;SDS011;4950;46.042;14.472;2022-12-07T12:00:48;12.77;;;11.37;;
9821;SDS011;4950;46.042;14.472;2022-12-07T12:03:22;11.90;;;10.70;;
9821;SDS011;4950;46.042;14.472;2022-12-07T12:05:55;11.87;;;10.63;;
9821;SDS011;4950;46.042;14.472;2022-12-07T12:08:23;11.80;;;10.60;;
9821;SDS011;4950;46.042;14.472;2022-12-07T12:10:58;12.13;;;10.53;;
9821;SDS011;4950;46.042;14.472;2022-12-07T12:13:44;11.33;;;10.13;;
9821;SDS011;4950;46.042;14.472;2022-12-07T12:16:35;11.53;;;10.07;;
9821;SDS011;4950;46.042;14.472;2022-12-07T12:19:21;10.87;;;9.40;;
9821;SDS011;4950;46.042;14.472;2022-12-07T12:21:57;10.93;;;9.73;;
9821;SDS011;4950;46.042;14.472;2022-12-07T12:24:31;14.03;;;10.63;;
9821;SDS011;4950;46.042;14.472;2022-12-07T12:27:02;13.43;;;11.93;;
9821;SDS011;4950;46.042;14.472;2022-12-07T12:29:31;12.10;;;10.23;;
9821;SDS011;4950;46.042;14.472;2022-12-07T12:32:05;11.63;;;10.43;;
9821;SDS011;4950;46.042;14.472;2022-12-07T12:34:39;10.50;;;9.33;;
9821;SDS011;4950;46.042;14.472;2022-12-07T12:37:18;11.97;;;9.80;;
9821;SDS011;4950;46.042;14.472;2022-12-07T12:43:27;9.97;;;8.97;;
9821;SDS011;4950;46.042;14.472;2022-12-07T12:49:32;12.33;;;10.87;;
9821;SDS011;4950;46.042;14.472;2022-12-07T12:55:16;11.77;;;10.57;;
9821;SDS011;4950;46.042;14.472;2022-12-07T12:57:46;13.17;;;10.87;;
9821;SDS011;4950;46.042;14.472;2022-12-07T13:00:17;11.60;;;10.40;;
9821;SDS011;4950;46.042;14.472;2022-12-07T13:02:48;11.97;;;10.17;;
9821;SDS011;4950;46.042;14.472;2022-12-07T13:05:18;12.57;;;10.40;;
9821;SDS011;4950;46.042;14.472;2022-12-07T13:07:52;10.57;;;9.57;;
9821;SDS011;4950;46.042;14.472;2022-12-07T13:10:24;11.30;;;10.20;;
9821;SDS011;4950;46.042;14.472;2022-12-07T13:13:00;10.37;;;9.37;;
9821;SDS011;4950;46.042;14.472;2022-12-07T13:15:33;10.67;;;9.67;;
9821;SDS011;4950;46.042;14.472;2022-12-07T13:18:03;10.87;;;9.77;;
9821;SDS011;4950;46.042;14.472;2022-12-07T13:20:54;10.80;;;9.70;;
9821;SDS011;4950;46.042;14.472;2022-12-07T13:23:29;10.50;;;9.37;;
9821;SDS011;4950;46.042;14.472;2022-12-07T13:26:12;9.73;;;8.83;;
9821;SDS011;4950;46.042;14.472;2022-12-07T13:28:43;10.57;;;8.73;;
9821;SDS011;4950;46.042;14.472;2022-12-07T13:31:15;10.00;;;9.00;;
9821;SDS011;4950;46.042;14.472;2022-12-07T13:33:58;8.97;;;8.17;;
9821;SDS011;4950;46.042;14.472;2022-12-07T13:36:26;9.20;;;8.20;;
9821;SDS011;4950;46.042;14.472;2022-12-07T13:38:57;10.13;;;9.13;;
9821;SDS011;4950;46.042;14.472;2022-12-07T13:41:26;11.90;;;9.60;;
9821;SDS011;4950;46.042;14.472;2022-12-07T13:43:55;8.90;;;8.00;;
9821;SDS011;4950;46.042;14.472;2022-12-07T13:46:31;10.50;;;8.77;;
9821;SDS011;4950;46.042;14.472;2022-12-07T13:49:15;10.03;;;9.03;;
9821;SDS011;4950;46.042;14.472;2022-12-07T13:51:44;9.83;;;8.83;;
9821;SDS011;4950;46.042;14.472;2022-12-07T13:54:12;10.37;;;9.30;;
9821;SDS011;4950;46.042;14.472;2022-12-07T13:56:41;11.33;;;10.20;;
9821;SDS011;4950;46.042;14.472;2022-12-07T13:59:18;10.73;;;9.47;;
9821;SDS011;4950;46.042;14.472;2022-12-07T14:01:47;10.57;;;9.57;;
9821;SDS011;4950;46.042;14.472;2022-12-07T14:04:19;10.40;;;9.30;;
9821;SDS011;4950;46.042;14.472;2022-12-07T14:06:56;11.33;;;10.13;;
9821;SDS011;4950;46.042;14.472;2022-12-07T14:09:23;10.37;;;9.37;;
9821;SDS011;4950;46.042;14.472;2022-12-07T14:11:53;12.50;;;9.77;;
9821;SDS011;4950;46.042;14.472;2022-12-07T14:14:22;10.23;;;9.30;;
9821;SDS011;4950;46.042;14.472;2022-12-07T14:16:56;12.17;;;10.23;;
9821;SDS011;4950;46.042;14.472;2022-12-07T14:22:26;11.83;;;10.53;;
9821;SDS011;4950;46.042;14.472;2022-12-07T14:24:58;12.37;;;11.07;;
9821;SDS011;4950;46.042;14.472;2022-12-07T14:27:48;12.43;;;11.13;;
9821;SDS011;4950;46.042;14.472;2022-12-07T14:30:18;11.70;;;10.60;;
9821;SDS011;4950;46.042;14.472;2022-12-07T14:32:46;14.10;;;12.43;;
9821;SDS011;4950;46.042;14.472;2022-12-07T14:35:17;14.13;;;12.70;;
9821;SDS011;4950;46.042;14.472;2022-12-07T14:37:45;12.70;;;11.50;;
9821;SDS011;4950;46.042;14.472;2022-12-07T14:40:13;13.10;;;11.80;;
9821;SDS011;4950;46.042;14.472;2022-12-07T14:42:41;13.43;;;12.03;;
9821;SDS011;4950;46.042;14.472;2022-12-07T14:45:13;13.53;;;10.63;;
9821;SDS011;4950;46.042;14.472;2022-12-07T14:47:42;12.10;;;10.60;;
9821;SDS011;4950;46.042;14.472;2022-12-07T14:50:11;12.27;;;11.07;;
9821;SDS011;4950;46.042;14.472;2022-12-07T14:52:38;11.83;;;10.73;;
9821;SDS011;4950;46.042;14.472;2022-12-07T14:55:07;11.07;;;10.00;;
9821;SDS011;4950;46.042;14.472;2022-12-07T14:57:39;12.43;;;10.27;;
9821;SDS011;4950;46.042;14.472;2022-12-07T15:00:06;11.83;;;10.63;;
9821;SDS011;4950;46.042;14.472;2022-12-07T15:02:36;11.67;;;10.47;;
9821;SDS011;4950;46.042;14.472;2022-12-07T15:05:02;11.70;;;10.50;;
9821;SDS011;4950;46.042;14.472;2022-12-07T15:07:29;12.50;;;11.20;;
9821;SDS011;4950;46.042;14.472;2022-12-07T15:09:56;12.30;;;10.87;;
9821;SDS011;4950;46.042;14.472;2022-12-07T15:12:23;11.73;;;10.23;;
9821;SDS011;4950;46.042;14.472;2022-12-07T15:14:50;11.97;;;10.67;;
9821;SDS011;4950;46.042;14.472;2022-12-07T15:17:16;12.23;;;10.93;;
9821;SDS011;4950;46.042;14.472;2022-12-07T15:19:44;11.97;;;10.77;;
9821;SDS011;4950;46.042;14.472;2022-12-07T15:22:11;11.50;;;10.37;;
9821;SDS011;4950;46.042;14.472;2022-12-07T15:24:38;11.97;;;10.70;;
9821;SDS011;4950;46.042;14.472;2022-12-07T15:27:05;12.27;;;11.07;;
9821;SDS011;4950;46.042;14.472;2022-12-07T15:29:31;12.43;;;11.23;;
9821;SDS011;4950;46.042;14.472;2022-12-07T15:31:58;12.80;;;10.53;;
9821;SDS011;4950;46.042;14.472;2022-12-07T15:34:25;12.60;;;11.43;;
9821;SDS011;4950;46.042;14.472;2022-12-07T15:36:54;14.40;;;12.90;;
9821;SDS011;4950;46.042;14.472;2022-12-07T15:39:21;13.33;;;11.53;;